Hovedside
METAR-TAF:

METAR-TAF

Lufthavner :

Adana, Tyrkia

breddegrad: 36-59N, lengdegrad: 035-18E, høyde over havet: 20 m

Gjeldene værobservasjon

Denne rapporten ble laget for 37 minutter siden, klokken 09:20 UTC
Vind 9 kt fra Sør-sørvest, skiftende mellom Sør og Vest-sørvest
Temperatur 32°C
Luftfuktighet 63%
Trykk 1005 hPa
Sikt 10 km eller mer
Brutte skyer i en høyde av 3000 ft

METAR: LTAF 090920Z 21009KT 180V240 9999 BKN030 32/24 Q1005 NOSIG RMK RWY23 24009KT 5CU030

Tid: 12:57 (09:57 UTC)


TAF: fraværende

Værobservasjoner og værvarsel for over 4000 flyplasser (METAR- og TAF-rapporter).

Tilgjengelige stasjoner er representert av de røde og gule prikkene på kartet.

Hold musepekeren over prikken for å se navnet på stasjonen.

Klikk så for å se værobservasjoner og -varsler.

For å forandre kartet kan du klikke på den grønne knappen med svart kryss for å zoome inn, på den grønne knappen med strek for å zoome ut, eller på de grønne pilene for å se tilstøtende kart.


METAR-TAF: